createdAt,value
2018-05-17T00:00:27.329Z,79.16
2018-05-17T00:02:54.721Z,79.68
2018-05-17T00:05:22.127Z,80.35
2018-05-17T00:07:49.515Z,79.93
2018-05-17T00:10:16.981Z,79.69
2018-05-17T00:12:44.410Z,79.85
2018-05-17T00:15:11.868Z,81.01
2018-05-17T00:17:39.278Z,81.17
2018-05-17T00:20:06.701Z,81.43
2018-05-17T00:22:34.145Z,81.00
2018-05-17T00:25:01.541Z,81.32
2018-05-17T00:27:28.937Z,80.97
2018-05-17T00:29:56.334Z,81.64
2018-05-17T00:32:23.729Z,81.63
2018-05-17T00:34:51.267Z,81.96
2018-05-17T00:37:18.641Z,81.79
2018-05-17T00:39:46.125Z,81.91
2018-05-17T00:42:13.614Z,81.26
2018-05-17T00:44:41.057Z,80.61
2018-05-17T00:47:08.457Z,80.89
2018-05-17T00:49:35.853Z,81.01
2018-05-17T00:52:03.317Z,81.37
2018-05-17T00:54:30.796Z,81.03
2018-05-17T00:56:58.192Z,80.81
2018-05-17T00:59:25.579Z,80.70
2018-05-17T01:01:52.997Z,80.83
2018-05-17T01:04:20.393Z,80.50
2018-05-17T01:06:47.805Z,80.49
2018-05-17T01:09:15.220Z,80.08
2018-05-17T01:11:42.643Z,80.09
2018-05-17T01:14:10.078Z,80.63
2018-05-17T01:16:37.476Z,79.79
2018-05-17T01:19:04.878Z,79.51
2018-05-17T01:21:32.357Z,79.19
2018-05-17T01:23:59.806Z,79.07
2018-05-17T01:26:27.214Z,79.51
2018-05-17T01:28:54.611Z,79.60
2018-05-17T01:31:22.013Z,79.42
2018-05-17T01:36:16.175Z,78.97
2018-05-17T01:38:43.569Z,79.20
2018-05-17T01:41:10.994Z,78.82
2018-05-17T01:43:38.437Z,78.68
2018-05-17T01:46:05.836Z,78.18
2018-05-17T01:48:33.233Z,78.69
2018-05-17T01:51:00.638Z,78.65
2018-05-17T01:53:28.054Z,78.65
2018-05-17T01:55:55.504Z,79.01
2018-05-17T01:58:22.968Z,79.00
2018-05-17T02:00:50.386Z,78.63
2018-05-17T02:03:17.785Z,78.42
2018-05-17T02:05:45.237Z,77.95
2018-05-17T02:08:12.655Z,77.71
2018-05-17T02:10:40.061Z,77.91
2018-05-17T02:13:07.445Z,78.42
2018-05-17T02:15:34.861Z,78.05
2018-05-17T02:18:02.269Z,77.94
2018-05-17T02:20:29.672Z,77.84
2018-05-17T02:22:57.086Z,77.55
2018-05-17T02:25:24.556Z,77.05
2018-05-17T02:27:52.033Z,77.00
2018-05-17T02:30:19.433Z,76.46
2018-05-17T02:32:46.832Z,76.75
2018-05-17T02:35:14.221Z,77.49
2018-05-17T02:37:41.633Z,77.78
2018-05-17T02:40:09.035Z,77.65
2018-05-17T02:42:36.557Z,77.95
2018-05-17T02:45:03.958Z,78.27
2018-05-17T02:47:31.389Z,77.90
2018-05-17T02:49:58.812Z,77.64
2018-05-17T02:52:26.287Z,77.52
2018-05-17T02:54:53.678Z,77.17
2018-05-17T02:57:21.079Z,77.20
2018-05-17T02:59:48.497Z,76.52
2018-05-17T03:02:15.894Z,76.73
2018-05-17T03:04:43.288Z,76.42
2018-05-17T03:07:10.697Z,76.59
2018-05-17T03:09:38.129Z,76.05
2018-05-17T03:12:05.628Z,76.02
2018-05-17T03:14:33.025Z,75.70
2018-05-17T03:17:00.431Z,76.18
2018-05-17T03:19:27.862Z,75.64
2018-05-17T03:21:55.281Z,75.91
2018-05-17T03:24:22.702Z,75.83
2018-05-17T03:26:50.093Z,75.20
2018-05-17T03:29:17.484Z,74.74
2018-05-17T03:31:44.906Z,74.10
2018-05-17T03:34:12.301Z,74.37
2018-05-17T03:36:39.747Z,74.76
2018-05-17T03:39:07.137Z,75.24
2018-05-17T03:41:34.538Z,75.57
2018-05-17T03:44:01.945Z,74.99
2018-05-17T03:46:29.351Z,74.22
2018-05-17T03:48:56.742Z,74.81
2018-05-17T03:51:24.231Z,74.36
2018-05-17T03:53:51.626Z,74.54
2018-05-17T03:56:19.022Z,73.96
2018-05-17T03:58:46.414Z,74.18
2018-05-17T04:01:25.653Z,73.64
2018-05-17T04:04:04.721Z,73.79
2018-05-17T04:06:37.633Z,74.06
2018-05-17T04:09:05.781Z,74.65
2018-05-17T04:11:33.296Z,74.44
2018-05-17T04:14:00.849Z,74.24
2018-05-17T04:16:28.137Z,73.10
2018-05-17T04:18:55.582Z,73.10
2018-05-17T04:21:22.977Z,72.80
2018-05-17T04:23:50.379Z,72.61
2018-05-17T04:26:17.782Z,72.41
2018-05-17T04:28:45.176Z,72.35
2018-05-17T04:31:12.683Z,72.77
2018-05-17T04:33:40.084Z,72.40
2018-05-17T04:36:07.475Z,72.56
2018-05-17T04:38:34.895Z,72.30
2018-05-17T04:41:02.295Z,72.73
2018-05-17T04:43:29.748Z,72.02
2018-05-17T04:45:57.157Z,71.99
2018-05-17T04:48:24.607Z,71.98
2018-05-17T04:50:51.994Z,72.42
2018-05-17T04:53:19.397Z,72.27
2018-05-17T04:55:46.799Z,71.78
2018-05-17T04:58:14.217Z,71.37
2018-05-17T05:00:41.640Z,71.80
2018-05-17T05:03:09.050Z,71.37
2018-05-17T05:05:36.443Z,70.72
2018-05-17T05:08:03.847Z,70.14
2018-05-17T05:10:31.241Z,70.56
2018-05-17T05:12:58.645Z,70.25
2018-05-17T05:15:26.119Z,70.70
2018-05-17T05:17:53.565Z,70.31
2018-05-17T05:20:20.952Z,70.23
2018-05-17T05:22:48.357Z,70.24
2018-05-17T05:25:15.833Z,69.89
2018-05-17T05:27:43.306Z,70.07
2018-05-17T05:30:10.703Z,69.83
2018-05-17T05:32:38.093Z,69.53
2018-05-17T05:35:05.589Z,69.46
2018-05-17T05:37:33.077Z,69.03
2018-05-17T05:40:00.397Z,68.13
2018-05-17T05:42:27.797Z,67.68
2018-05-17T05:44:55.377Z,67.58
2018-05-17T05:47:22.848Z,67.59
2018-05-17T05:49:50.252Z,67.58
2018-05-17T05:52:17.645Z,67.62
2018-05-17T05:54:45.053Z,67.49
2018-05-17T05:57:12.462Z,66.99
2018-05-17T05:59:39.929Z,67.10
2018-05-17T06:02:07.343Z,67.34
2018-05-17T06:04:34.765Z,67.23
2018-05-17T06:07:02.153Z,67.02
2018-05-17T06:09:29.578Z,66.55
2018-05-17T06:11:56.997Z,67.13
2018-05-17T06:14:24.443Z,66.62
2018-05-17T06:16:51.842Z,66.21
2018-05-17T06:19:19.241Z,65.90
2018-05-17T06:21:46.638Z,65.96
2018-05-17T06:24:14.049Z,65.43
2018-05-17T06:26:41.533Z,65.36
2018-05-17T06:29:08.937Z,64.77
2018-05-17T06:31:36.325Z,64.18
2018-05-17T06:34:03.815Z,64.28
2018-05-17T06:36:31.304Z,63.34
2018-05-17T06:38:58.726Z,63.24
2018-05-17T06:41:26.112Z,62.99
2018-05-17T06:43:53.611Z,63.28
2018-05-17T06:46:21.021Z,63.64
2018-05-17T06:48:48.448Z,63.59
2018-05-17T06:51:15.840Z,63.12
2018-05-17T06:53:43.241Z,63.31
2018-05-17T06:56:10.646Z,63.67
2018-05-17T06:58:38.086Z,63.83
2018-05-17T07:01:05.502Z,65.88
2018-05-17T07:03:32.943Z,65.44
2018-05-17T07:06:00.385Z,65.39
2018-05-17T07:08:27.790Z,65.38
2018-05-17T07:10:55.190Z,65.76
2018-05-17T07:13:22.673Z,64.76
2018-05-17T07:15:50.097Z,65.42
2018-05-17T07:18:17.648Z,66.17
2018-05-17T07:20:45.905Z,65.07
2018-05-17T07:23:13.305Z,64.82
2018-05-17T07:25:40.697Z,64.33
2018-05-17T07:28:08.225Z,64.29
2018-05-17T07:30:35.638Z,64.30
2018-05-17T07:33:03.043Z,63.16
2018-05-17T07:35:30.554Z,63.84
2018-05-17T07:37:57.974Z,63.52
2018-05-17T07:40:25.457Z,64.43
2018-05-17T07:42:52.871Z,63.36
2018-05-17T07:45:20.327Z,63.55
2018-05-17T07:47:47.733Z,63.83
2018-05-17T07:50:15.142Z,64.66
2018-05-17T07:52:42.641Z,64.67
2018-05-17T07:55:10.075Z,64.92
2018-05-17T07:57:37.480Z,65.14
2018-05-17T08:00:04.920Z,63.27
2018-05-17T08:02:32.317Z,63.10
2018-05-17T08:04:59.821Z,62.07
2018-05-17T08:07:27.219Z,63.32
2018-05-17T08:09:54.701Z,61.79
2018-05-17T08:12:22.105Z,61.96
2018-05-17T08:14:49.513Z,62.36
2018-05-17T08:17:16.908Z,61.92
2018-05-17T08:19:44.327Z,62.49
2018-05-17T08:22:11.732Z,61.82
2018-05-17T08:24:39.171Z,61.74
2018-05-17T08:27:06.566Z,61.71
2018-05-17T08:29:33.967Z,60.47
2018-05-17T08:32:01.369Z,59.43
2018-05-17T08:34:28.857Z,59.61
2018-05-17T08:36:56.348Z,58.85
2018-05-17T08:39:23.810Z,57.51
2018-05-17T08:41:51.277Z,56.95
2018-05-17T08:44:18.731Z,57.42
2018-05-17T08:46:46.177Z,56.72
2018-05-17T08:49:13.633Z,56.31
2018-05-17T08:51:41.121Z,55.61
2018-05-17T08:54:08.536Z,55.39
2018-05-17T08:56:35.921Z,55.40
2018-05-17T08:59:03.337Z,56.05
2018-05-17T09:01:30.860Z,58.22
2018-05-17T09:03:58.260Z,57.62
2018-05-17T09:06:25.659Z,57.47
2018-05-17T09:08:53.165Z,55.46
2018-05-17T09:11:20.549Z,55.09
2018-05-17T09:13:48.019Z,54.56
2018-05-17T09:16:15.388Z,54.97
2018-05-17T09:18:42.877Z,54.45
2018-05-17T09:21:10.286Z,54.92
2018-05-17T09:23:37.684Z,54.38
2018-05-17T09:26:05.110Z,54.09
2018-05-17T09:28:32.512Z,54.56
2018-05-17T09:30:59.975Z,54.14
2018-05-17T09:33:27.363Z,54.68
2018-05-17T09:35:54.768Z,54.82
2018-05-17T09:38:22.193Z,53.84
2018-05-17T09:40:49.639Z,54.56
2018-05-17T09:43:17.141Z,52.29
2018-05-17T09:45:44.617Z,52.04
2018-05-17T09:48:12.053Z,51.34
2018-05-17T09:50:39.497Z,50.17
2018-05-17T09:53:06.978Z,50.40
2018-05-17T09:55:34.384Z,48.47
2018-05-17T09:58:01.788Z,49.48
2018-05-17T10:00:31.402Z,48.62
2018-05-17T10:02:58.805Z,50.57
2018-05-17T10:05:26.312Z,49.54
2018-05-17T10:07:53.705Z,50.09
2018-05-17T10:10:21.210Z,49.76
2018-05-17T10:12:48.602Z,50.36
2018-05-17T10:15:16.006Z,51.10
2018-05-17T10:17:43.423Z,50.03
2018-05-17T10:20:10.838Z,50.30
2018-05-17T10:22:38.231Z,51.86
2018-05-17T10:25:05.648Z,49.10
2018-05-17T10:27:33.984Z,49.96
2018-05-17T10:30:01.385Z,48.86
2018-05-17T10:32:28.813Z,48.15
2018-05-17T10:34:56.195Z,47.56
2018-05-17T10:37:23.668Z,48.27
2018-05-17T10:39:51.065Z,46.48
2018-05-17T10:42:18.555Z,46.77
2018-05-17T10:44:46.038Z,47.48
2018-05-17T10:47:13.438Z,46.80
2018-05-17T10:49:40.838Z,46.78
2018-05-17T10:52:08.232Z,47.27
2018-05-17T10:54:35.730Z,46.99
2018-05-17T10:57:03.029Z,45.54
2018-05-17T10:59:30.479Z,47.66
2018-05-17T11:01:57.912Z,46.14
2018-05-17T11:04:25.318Z,44.72
2018-05-17T11:06:52.736Z,45.25
2018-05-17T11:09:20.213Z,44.92
2018-05-17T11:11:47.593Z,46.15
2018-05-17T11:14:15.002Z,46.52
2018-05-17T11:16:42.403Z,48.77
2018-05-17T11:19:09.790Z,46.44
2018-05-17T11:21:37.181Z,45.73
2018-05-17T11:24:04.625Z,47.02
2018-05-17T11:26:32.052Z,46.76
2018-05-17T11:28:59.459Z,46.25
2018-05-17T11:31:26.897Z,46.79
2018-05-17T11:33:54.291Z,46.77
2018-05-17T11:36:21.685Z,48.03
2018-05-17T11:38:49.100Z,45.63
2018-05-17T11:41:16.505Z,45.63
2018-05-17T11:43:44.002Z,45.08
2018-05-17T11:46:11.441Z,45.42
2018-05-17T11:48:38.839Z,46.35
2018-05-17T11:51:06.269Z,45.45
2018-05-17T11:53:33.837Z,47.05
2018-05-17T11:56:01.235Z,45.58
2018-05-17T11:58:28.650Z,45.55
2018-05-17T12:00:56.077Z,45.79
2018-05-17T12:03:23.472Z,46.71
2018-05-17T12:05:50.921Z,45.19
2018-05-17T12:08:18.387Z,45.85
2018-05-17T12:10:45.797Z,45.09
2018-05-17T12:13:13.184Z,45.40
2018-05-17T12:15:40.593Z,45.90
2018-05-17T12:18:07.992Z,45.97
2018-05-17T12:20:35.398Z,46.70
2018-05-17T12:23:03.007Z,46.10
2018-05-17T12:25:30.301Z,48.18
2018-05-17T12:27:57.697Z,46.57
2018-05-17T12:30:25.122Z,46.01
2018-05-17T12:32:52.650Z,45.32
2018-05-17T12:35:20.054Z,46.28
2018-05-17T12:37:47.525Z,46.35
2018-05-17T12:40:14.952Z,46.28
2018-05-17T12:42:42.620Z,46.56
2018-05-17T12:45:09.772Z,45.59
2018-05-17T12:47:37.193Z,46.02
2018-05-17T12:50:05.022Z,45.81
2018-05-17T12:52:32.438Z,45.73
2018-05-17T12:54:59.845Z,46.14
2018-05-17T12:57:27.361Z,47.34
2018-05-17T12:59:54.801Z,46.44
2018-05-17T13:02:22.216Z,47.74
2018-05-17T13:04:49.665Z,47.41
2018-05-17T13:07:17.089Z,47.83
2018-05-17T13:09:44.595Z,47.70
2018-05-17T13:12:12.019Z,48.28
2018-05-17T13:14:39.409Z,48.04
2018-05-17T13:17:06.825Z,48.68
2018-05-17T13:19:34.237Z,49.34
2018-05-17T13:22:01.652Z,49.71
2018-05-17T13:24:29.049Z,50.02
2018-05-17T13:26:56.453Z,50.40
2018-05-17T13:29:24.126Z,50.76
2018-05-17T13:31:51.552Z,50.82
2018-05-17T13:34:18.954Z,51.01
2018-05-17T13:36:46.379Z,51.30
2018-05-17T13:39:13.857Z,51.73
2018-05-17T13:41:41.281Z,51.81
2018-05-17T13:44:08.673Z,51.74
2018-05-17T13:46:36.092Z,51.29
2018-05-17T13:49:03.795Z,52.43
2018-05-17T13:51:31.180Z,52.46
2018-05-17T13:53:58.574Z,51.99
2018-05-17T13:56:26.041Z,52.80
2018-05-17T13:58:53.505Z,54.50
2018-05-17T14:01:20.958Z,56.24
2018-05-17T14:03:48.336Z,56.10
2018-05-17T14:06:15.747Z,55.89
2018-05-17T14:08:43.133Z,55.37
2018-05-17T14:11:10.550Z,55.70
2018-05-17T14:13:37.949Z,55.57
2018-05-17T14:16:05.449Z,56.14
2018-05-17T14:18:32.876Z,55.71
2018-05-17T14:21:00.277Z,56.74
2018-05-17T14:23:27.750Z,57.22
2018-05-17T14:25:55.217Z,58.23
2018-05-17T14:28:22.604Z,58.17
2018-05-17T14:30:50.016Z,57.31
2018-05-17T14:33:17.520Z,57.16
2018-05-17T14:35:44.925Z,58.10
2018-05-17T14:38:12.344Z,59.11
2018-05-17T14:40:39.769Z,59.67
2018-05-17T14:43:07.272Z,60.73
2018-05-17T14:45:34.721Z,59.72
2018-05-17T14:48:02.139Z,60.51
2018-05-17T14:50:29.540Z,60.09
2018-05-17T14:52:56.977Z,59.58
2018-05-17T14:55:24.449Z,58.95
2018-05-17T14:57:51.898Z,59.42
2018-05-17T15:00:19.301Z,59.47
2018-05-17T15:02:46.709Z,59.59
2018-05-17T15:05:14.162Z,58.71
2018-05-17T15:07:41.622Z,59.20
2018-05-17T15:10:09.027Z,60.62
2018-05-17T15:12:36.463Z,60.40
2018-05-17T15:15:03.896Z,60.58
2018-05-17T15:17:31.459Z,60.43
2018-05-17T15:19:58.900Z,60.40
2018-05-17T15:22:26.371Z,61.01
2018-05-17T15:24:53.816Z,60.89
2018-05-17T15:27:21.345Z,60.94
2018-05-17T15:29:48.725Z,61.50
2018-05-17T15:32:16.110Z,61.91
2018-05-17T15:34:43.557Z,61.62
2018-05-17T15:37:10.954Z,61.70
2018-05-17T15:39:38.351Z,62.35
2018-05-17T15:42:05.827Z,61.85
2018-05-17T15:44:33.301Z,61.43
2018-05-17T15:47:00.741Z,61.59
2018-05-17T15:49:28.153Z,62.13
2018-05-17T15:51:55.562Z,61.82
2018-05-17T15:54:22.956Z,61.49
2018-05-17T15:56:50.360Z,62.40
2018-05-17T15:59:17.837Z,63.34
2018-05-17T16:01:45.248Z,63.98
2018-05-17T16:04:12.768Z,63.79
2018-05-17T16:06:40.228Z,63.79
2018-05-17T16:09:07.590Z,64.54
2018-05-17T16:11:34.997Z,64.42
2018-05-17T16:14:02.401Z,64.87
2018-05-17T16:16:29.922Z,65.07
2018-05-17T16:18:57.338Z,65.17
2018-05-17T16:21:24.825Z,65.24
2018-05-17T16:23:52.233Z,65.05
2018-05-17T16:26:19.621Z,64.98
2018-05-17T16:28:47.062Z,65.21
2018-05-17T16:31:14.465Z,65.76
2018-05-17T16:33:41.923Z,65.60
2018-05-17T16:36:09.322Z,65.35
2018-05-17T16:38:36.812Z,65.46
2018-05-17T16:41:04.217Z,65.06
2018-05-17T16:43:31.636Z,64.79
2018-05-17T16:45:59.042Z,64.54
2018-05-17T16:48:26.592Z,64.98
2018-05-17T16:50:54.012Z,65.38
2018-05-17T16:53:21.484Z,65.36
2018-05-17T16:55:48.846Z,65.72
2018-05-17T16:58:16.240Z,65.41
2018-05-17T17:00:43.741Z,65.34
2018-05-17T17:03:11.138Z,65.07
2018-05-17T17:05:38.534Z,65.03
2018-05-17T17:08:05.968Z,65.54
2018-05-17T17:10:33.348Z,65.18
2018-05-17T17:13:00.860Z,66.53
2018-05-17T17:15:28.252Z,66.38
2018-05-17T17:17:55.744Z,66.59
2018-05-17T17:20:23.094Z,66.49
2018-05-17T17:22:50.500Z,66.14
2018-05-17T17:25:17.926Z,66.30
2018-05-17T17:27:45.328Z,66.12
2018-05-17T17:30:12.805Z,66.45
2018-05-17T17:32:40.221Z,66.08
2018-05-17T17:35:07.603Z,65.55
2018-05-17T17:37:35.029Z,65.44
2018-05-17T17:40:02.441Z,65.94
2018-05-17T17:42:29.881Z,66.41
2018-05-17T17:44:57.404Z,66.31
2018-05-17T17:47:24.920Z,66.11
2018-05-17T17:49:52.503Z,66.01
2018-05-17T17:52:19.853Z,66.19
2018-05-17T17:54:47.275Z,65.75
2018-05-17T17:57:14.672Z,65.48
2018-05-17T17:59:42.153Z,65.69
2018-05-17T18:02:09.596Z,66.19
2018-05-17T18:04:37.008Z,66.69
2018-05-17T18:07:04.417Z,66.92
2018-05-17T18:09:31.812Z,67.21
2018-05-17T18:11:59.210Z,66.41
2018-05-17T18:14:26.664Z,65.76
2018-05-17T18:16:54.062Z,65.98
2018-05-17T18:19:21.456Z,66.15
2018-05-17T18:21:48.848Z,66.10
2018-05-17T18:24:16.254Z,66.09
2018-05-17T18:26:43.676Z,65.45
2018-05-17T18:29:11.150Z,65.26
2018-05-17T18:31:38.575Z,65.30
2018-05-17T18:34:06.019Z,66.05
2018-05-17T18:36:33.472Z,66.34
2018-05-17T18:39:00.870Z,66.70
2018-05-17T18:41:28.322Z,67.16
2018-05-17T18:43:55.757Z,66.92
2018-05-17T18:46:23.196Z,67.12
2018-05-17T18:48:50.591Z,67.50
2018-05-17T18:51:18.002Z,67.51
2018-05-17T18:53:45.403Z,67.39
2018-05-17T18:56:12.817Z,67.63
2018-05-17T18:58:40.298Z,67.92
2018-05-17T19:01:07.892Z,67.23
2018-05-17T19:03:35.301Z,66.81
2018-05-17T19:06:02.697Z,66.60
2018-05-17T19:08:30.126Z,65.72
2018-05-17T19:10:57.513Z,65.94
2018-05-17T19:13:24.913Z,65.74
2018-05-17T19:15:52.369Z,65.89
2018-05-17T19:18:19.832Z,66.11
2018-05-17T19:20:47.252Z,66.20
2018-05-17T19:23:14.648Z,65.63
2018-05-17T19:25:42.125Z,66.17
2018-05-17T19:28:09.516Z,66.14
2018-05-17T19:30:37.020Z,66.37
2018-05-17T19:33:04.489Z,65.99
2018-05-17T19:35:31.894Z,65.15
2018-05-17T19:37:59.312Z,65.52
2018-05-17T19:40:26.846Z,65.58
2018-05-17T19:42:54.242Z,65.79
2018-05-17T19:45:21.748Z,65.46
2018-05-17T19:47:49.067Z,65.41
2018-05-17T19:50:16.569Z,65.96
2018-05-17T19:52:43.969Z,65.69
2018-05-17T19:55:11.383Z,65.78
2018-05-17T19:57:38.790Z,66.06
2018-05-17T20:00:06.183Z,66.21
2018-05-17T20:02:34.540Z,66.03
2018-05-17T20:05:02.103Z,66.99
2018-05-17T20:07:29.462Z,67.10
2018-05-17T20:09:56.966Z,67.50
2018-05-17T20:12:24.393Z,67.25
2018-05-17T20:14:51.788Z,67.59
2018-05-17T20:17:19.217Z,67.82
2018-05-17T20:19:46.699Z,68.13
2018-05-17T20:22:14.100Z,67.81
2018-05-17T20:24:41.509Z,67.54
2018-05-17T20:27:08.930Z,68.32
2018-05-17T20:29:36.363Z,67.86
2018-05-17T20:32:03.861Z,67.58
2018-05-17T20:34:31.263Z,67.87
2018-05-17T20:36:58.722Z,67.92
2018-05-17T20:39:26.123Z,67.98
2018-05-17T20:41:53.525Z,67.53
2018-05-17T20:44:20.992Z,68.42
2018-05-17T20:46:48.466Z,68.86
2018-05-17T20:49:15.962Z,69.72
2018-05-17T20:51:43.514Z,69.98
2018-05-17T20:54:10.962Z,70.19
2018-05-17T20:56:38.726Z,70.26
2018-05-17T20:59:06.196Z,69.96
2018-05-17T21:01:33.663Z,69.49
2018-05-17T21:04:01.108Z,68.97
2018-05-17T21:06:28.502Z,68.90
2018-05-17T21:08:55.976Z,69.70
2018-05-17T21:11:23.422Z,70.33
2018-05-17T21:13:50.822Z,69.92
2018-05-17T21:16:18.210Z,69.51
2018-05-17T21:18:45.613Z,69.37
2018-05-17T21:21:13.042Z,69.24
2018-05-17T21:23:40.448Z,69.39
2018-05-17T21:26:07.947Z,70.04
2018-05-17T21:28:35.349Z,70.16
2018-05-17T21:31:02.749Z,70.30
2018-05-17T21:33:30.174Z,70.22
2018-05-17T21:35:57.574Z,70.52
2018-05-17T21:38:25.025Z,71.14
2018-05-17T21:40:52.489Z,71.70
2018-05-17T21:43:19.894Z,72.14
2018-05-17T21:45:47.289Z,72.57
2018-05-17T21:48:14.693Z,72.19
2018-05-17T21:50:42.090Z,72.07
2018-05-17T21:53:09.508Z,71.68
2018-05-17T21:55:37.082Z,71.71
2018-05-17T21:58:04.445Z,71.62
2018-05-17T22:00:31.829Z,72.37
2018-05-17T22:02:59.234Z,72.66
2018-05-17T22:05:26.624Z,72.34
2018-05-17T22:07:54.040Z,72.59
2018-05-17T22:10:21.565Z,72.39
2018-05-17T22:12:48.972Z,72.04
2018-05-17T22:15:16.355Z,72.08
2018-05-17T22:17:43.785Z,72.17
2018-05-17T22:20:11.260Z,72.34
2018-05-17T22:22:38.664Z,71.99
2018-05-17T22:25:06.174Z,71.09
2018-05-17T22:27:33.574Z,70.98
2018-05-17T22:30:00.988Z,70.97
2018-05-17T22:32:28.397Z,70.73
2018-05-17T22:34:55.785Z,70.21
2018-05-17T22:37:23.190Z,69.50
2018-05-17T22:39:50.598Z,69.27
2018-05-17T22:42:18.065Z,70.67
2018-05-17T22:44:45.449Z,71.85
2018-05-17T22:47:14.557Z,72.94
2018-05-17T22:49:42.074Z,73.27
2018-05-17T22:52:09.533Z,73.92
2018-05-17T22:54:36.973Z,73.31
2018-05-17T22:57:12.253Z,73.37
2018-05-17T22:59:39.656Z,72.90
2018-05-17T23:02:07.053Z,73.04
2018-05-17T23:04:34.551Z,73.25
2018-05-17T23:07:01.964Z,73.31
2018-05-17T23:09:29.447Z,73.20
2018-05-17T23:11:56.862Z,73.69
2018-05-17T23:14:24.265Z,73.95
2018-05-17T23:16:51.677Z,74.41
2018-05-17T23:19:19.088Z,74.65
2018-05-17T23:21:46.484Z,75.23
2018-05-17T23:24:13.982Z,75.14
2018-05-17T23:26:41.382Z,75.02
2018-05-17T23:29:08.801Z,74.50
2018-05-17T23:31:36.212Z,74.93
2018-05-17T23:34:03.642Z,74.50
2018-05-17T23:36:31.037Z,74.28
2018-05-17T23:38:58.462Z,73.95
2018-05-17T23:41:36.703Z,74.04
2018-05-17T23:44:04.128Z,74.77
2018-05-17T23:46:31.646Z,74.32
2018-05-17T23:48:59.055Z,74.04
2018-05-17T23:51:26.465Z,74.92
2018-05-17T23:53:53.857Z,74.88
2018-05-17T23:56:21.274Z,75.05
2018-05-17T23:58:48.746Z,74.80
